createdAt,value
2018-03-14T00:00:57.897Z,6.20
2018-03-14T00:03:26.050Z,6.20
2018-03-14T00:05:53.972Z,6.20
2018-03-14T00:08:21.791Z,6.20
2018-03-14T00:10:50.630Z,6.20
2018-03-14T00:13:18.770Z,6.20
2018-03-14T00:15:47.490Z,6.30
2018-03-14T00:18:15.330Z,6.20
2018-03-14T00:20:43.091Z,6.30
2018-03-14T00:23:11.070Z,6.30
2018-03-14T00:25:39.070Z,6.20
2018-03-14T00:28:07.290Z,6.20
2018-03-14T00:30:35.251Z,6.20
2018-03-14T00:33:03.895Z,5.80
2018-03-14T00:35:31.890Z,5.80
2018-03-14T00:37:59.970Z,5.60
2018-03-14T00:40:27.870Z,5.60
2018-03-14T00:42:57.292Z,5.70
2018-03-14T00:45:25.190Z,5.70
2018-03-14T00:47:53.010Z,5.80
2018-03-14T00:50:21.251Z,5.80
2018-03-14T00:52:50.493Z,5.40
2018-03-14T00:55:18.309Z,5.40
2018-03-14T00:57:46.250Z,5.20
2018-03-14T01:00:13.989Z,5.10
2018-03-14T01:02:41.810Z,5.20
2018-03-14T01:05:10.055Z,5.00
2018-03-14T01:07:38.210Z,4.80
2018-03-14T01:10:06.290Z,4.80
2018-03-14T01:12:35.060Z,4.90
2018-03-14T01:15:02.813Z,4.90
2018-03-14T01:17:30.910Z,5.00
2018-03-14T01:22:31.970Z,4.90
2018-03-14T01:24:59.894Z,4.80
2018-03-14T01:27:28.030Z,4.80
2018-03-14T01:29:55.870Z,4.70
2018-03-14T01:32:24.251Z,4.70
2018-03-14T01:34:52.094Z,4.70
2018-03-14T01:37:20.250Z,4.70
2018-03-14T01:39:48.651Z,4.70
2018-03-14T01:42:16.715Z,4.80
2018-03-14T01:44:44.850Z,4.90
2018-03-14T01:47:12.949Z,5.00
2018-03-14T01:49:40.770Z,5.00
2018-03-14T01:52:09.371Z,5.10
2018-03-14T01:54:37.450Z,5.10
2018-03-14T01:57:05.273Z,5.00
2018-03-14T01:59:33.090Z,4.60
2018-03-14T02:02:01.011Z,4.40
2018-03-14T02:04:28.869Z,4.40
2018-03-14T02:06:57.950Z,4.30
2018-03-14T02:09:25.890Z,4.30
2018-03-14T02:11:53.810Z,4.20
2018-03-14T02:14:21.710Z,4.20
2018-03-14T02:16:50.370Z,4.30
2018-03-14T02:19:18.290Z,4.30
2018-03-14T02:21:46.170Z,4.30
2018-03-14T02:24:15.410Z,4.20
2018-03-14T02:26:43.230Z,4.20
2018-03-14T02:29:11.110Z,4.30
2018-03-14T02:31:39.077Z,4.30
2018-03-14T02:34:06.990Z,3.90
2018-03-14T02:36:46.734Z,3.80
2018-03-14T02:39:15.490Z,4.00
2018-03-14T02:41:44.051Z,4.20
2018-03-14T02:44:12.232Z,4.10
2018-03-14T02:46:40.610Z,4.20
2018-03-14T02:49:09.812Z,4.40
2018-03-14T02:51:38.350Z,4.40
2018-03-14T02:54:06.970Z,4.50
2018-03-14T02:56:35.173Z,4.50
2018-03-14T02:59:03.071Z,4.50
2018-03-14T03:01:30.952Z,4.50
2018-03-14T03:03:59.230Z,4.60
2018-03-14T03:06:27.490Z,4.60
2018-03-14T03:08:55.650Z,4.60
2018-03-14T03:11:23.492Z,4.60
2018-03-14T03:13:51.409Z,4.60
2018-03-14T03:16:19.310Z,4.60
2018-03-14T03:18:47.970Z,4.60
2018-03-14T03:21:15.867Z,4.60
2018-03-14T03:23:44.829Z,4.50
2018-03-14T03:26:12.887Z,4.50
2018-03-14T03:28:40.806Z,4.50
2018-03-14T03:31:08.633Z,4.50
2018-03-14T03:33:36.936Z,4.50
2018-03-14T03:36:05.786Z,4.60
2018-03-14T03:38:33.528Z,4.60
2018-03-14T03:41:02.107Z,4.60
2018-03-14T03:43:30.107Z,4.60
2018-03-14T03:45:58.649Z,4.50
2018-03-14T03:48:27.748Z,4.50
2018-03-14T03:50:55.875Z,4.50
2018-03-14T03:53:23.968Z,4.50
2018-03-14T03:55:52.027Z,4.60
2018-03-14T03:58:19.910Z,4.60
2018-03-14T04:00:47.930Z,4.60
2018-03-14T04:03:16.115Z,4.70
2018-03-14T04:05:45.107Z,4.60
2018-03-14T04:08:13.047Z,4.60
2018-03-14T04:10:41.706Z,4.50
2018-03-14T04:13:09.527Z,4.50
2018-03-14T04:15:37.446Z,4.50
2018-03-14T04:18:05.366Z,4.40
2018-03-14T04:20:33.506Z,4.40
2018-03-14T04:23:01.505Z,4.50
2018-03-14T04:25:29.566Z,4.50
2018-03-14T04:27:57.466Z,4.50
2018-03-14T04:30:25.326Z,4.50
2018-03-14T04:32:53.306Z,4.60
2018-03-14T04:35:21.247Z,4.60
2018-03-14T04:37:49.129Z,4.50
2018-03-14T04:40:17.245Z,4.50
2018-03-14T04:42:45.085Z,4.30
2018-03-14T04:45:12.926Z,4.30
2018-03-14T04:47:41.725Z,4.20
2018-03-14T04:50:09.585Z,4.20
2018-03-14T04:52:37.404Z,4.20
2018-03-14T04:55:05.305Z,4.20
2018-03-14T04:57:33.406Z,4.30
2018-03-14T05:00:01.394Z,4.30
2018-03-14T05:02:29.287Z,4.30
2018-03-14T05:04:57.014Z,4.40
2018-03-14T05:07:24.976Z,4.40
2018-03-14T05:09:53.254Z,4.50
2018-03-14T05:12:21.327Z,4.50
2018-03-14T05:14:49.186Z,4.50
2018-03-14T05:17:17.406Z,4.60
2018-03-14T05:19:45.224Z,4.60
2018-03-14T05:22:13.465Z,4.60
2018-03-14T05:24:41.285Z,4.70
2018-03-14T05:27:09.085Z,4.70
2018-03-14T05:29:36.926Z,4.70
2018-03-14T05:32:05.785Z,4.70
2018-03-14T05:34:34.929Z,4.70
2018-03-14T05:37:04.608Z,4.60
2018-03-14T05:39:32.485Z,4.70
2018-03-14T05:42:00.585Z,4.50
2018-03-14T05:44:28.566Z,4.40
2018-03-14T05:46:56.344Z,4.50
2018-03-14T05:49:25.065Z,4.50
2018-03-14T05:51:52.865Z,4.50
2018-03-14T05:54:20.705Z,4.60
2018-03-14T05:56:48.806Z,4.60
2018-03-14T05:59:16.764Z,4.70
2018-03-14T06:01:45.686Z,4.60
2018-03-14T06:04:13.728Z,4.60
2018-03-14T06:06:41.605Z,4.60
2018-03-14T06:09:09.571Z,4.60
2018-03-14T06:11:37.427Z,4.60
2018-03-14T06:14:05.368Z,4.60
2018-03-14T06:16:34.126Z,4.60
2018-03-14T06:19:02.107Z,4.60
2018-03-14T06:21:30.787Z,4.50
2018-03-14T06:23:58.686Z,4.50
2018-03-14T06:26:26.649Z,4.70
2018-03-14T06:28:54.426Z,5.00
2018-03-14T06:31:22.366Z,5.20
2018-03-14T06:33:51.046Z,5.60
2018-03-14T06:36:19.608Z,5.70
2018-03-14T06:38:47.646Z,5.70
2018-03-14T06:41:16.206Z,5.80
2018-03-14T06:43:44.146Z,5.80
2018-03-14T06:46:11.906Z,5.80
2018-03-14T06:48:39.966Z,5.80
2018-03-14T06:51:08.266Z,6.70
2018-03-14T06:53:36.252Z,6.60
2018-03-14T06:56:06.672Z,7.20
2018-03-14T06:58:47.050Z,7.20
2018-03-14T07:04:27.571Z,7.70
2018-03-14T07:06:55.326Z,8.00
2018-03-14T07:09:22.794Z,8.10
2018-03-14T07:11:50.067Z,8.20
2018-03-14T07:14:19.729Z,8.50
2018-03-14T07:16:50.386Z,9.00
2018-03-14T07:19:17.869Z,9.50
2018-03-14T07:21:45.266Z,9.60
2018-03-14T07:24:13.386Z,9.30
2018-03-14T07:26:41.534Z,9.30
2018-03-14T07:29:09.386Z,9.20
2018-03-14T07:31:37.426Z,9.10
2018-03-14T07:34:04.946Z,8.90
2018-03-14T07:36:32.304Z,8.80
2018-03-14T07:38:59.745Z,8.80
2018-03-14T07:41:27.408Z,8.90
2018-03-14T07:43:55.170Z,9.00
2018-03-14T07:46:22.868Z,9.10
2018-03-14T07:48:50.208Z,9.10
2018-03-14T07:51:17.490Z,9.10
2018-03-14T07:53:45.167Z,9.20
2018-03-14T07:56:13.009Z,9.40
2018-03-14T07:58:40.504Z,9.40
2018-03-14T08:01:08.114Z,9.50
2018-03-14T08:03:36.294Z,9.90
2018-03-14T08:06:03.786Z,9.90
2018-03-14T08:08:31.208Z,10.10
2018-03-14T08:10:58.545Z,10.20
2018-03-14T08:13:25.919Z,10.10
2018-03-14T08:15:53.245Z,10.10
2018-03-14T08:18:21.426Z,10.20
2018-03-14T08:20:49.306Z,10.10
2018-03-14T08:23:16.867Z,10.20
2018-03-14T08:25:44.286Z,10.10
2018-03-14T08:28:11.806Z,10.00
2018-03-14T08:30:39.708Z,10.00
2018-03-14T08:33:07.568Z,9.90
2018-03-14T08:35:35.510Z,9.80
2018-03-14T08:38:04.406Z,9.60
2018-03-14T08:40:32.569Z,9.60
2018-03-14T08:43:00.567Z,9.60
2018-03-14T08:45:28.226Z,9.60
2018-03-14T08:47:56.385Z,9.60
2018-03-14T08:50:25.056Z,9.60
2018-03-14T08:52:54.366Z,9.60
2018-03-14T08:55:21.747Z,9.60
2018-03-14T08:57:49.105Z,9.50
2018-03-14T09:00:16.397Z,9.50
2018-03-14T09:02:44.765Z,9.50
2018-03-14T09:05:12.025Z,9.60
2018-03-14T09:07:39.387Z,9.60
2018-03-14T09:10:06.712Z,9.70
2018-03-14T09:12:34.128Z,9.70
2018-03-14T09:15:01.685Z,9.80
2018-03-14T09:17:28.989Z,9.90
2018-03-14T09:19:56.445Z,10.00
2018-03-14T09:22:23.925Z,10.00
2018-03-14T09:24:51.206Z,10.10
2018-03-14T09:27:18.686Z,10.20
2018-03-14T09:29:46.226Z,10.30
2018-03-14T09:32:13.578Z,10.30
2018-03-14T09:34:41.310Z,10.40
2018-03-14T09:37:08.966Z,10.50
2018-03-14T09:39:38.809Z,10.80
2018-03-14T09:42:07.065Z,10.90
2018-03-14T09:44:34.446Z,10.90
2018-03-14T09:47:02.247Z,11.10
2018-03-14T09:49:29.605Z,11.20
2018-03-14T09:51:57.067Z,11.40
2018-03-14T09:54:24.525Z,11.50
2018-03-14T09:56:52.126Z,11.60
2018-03-14T09:59:19.667Z,11.70
2018-03-14T10:01:47.026Z,11.80
2018-03-14T10:04:14.366Z,11.90
2018-03-14T10:06:42.686Z,11.90
2018-03-14T10:09:10.309Z,11.90
2018-03-14T10:11:38.215Z,12.10
2018-03-14T10:14:05.723Z,12.20
2018-03-14T10:16:34.207Z,12.20
2018-03-14T10:19:01.557Z,12.10
2018-03-14T10:21:29.206Z,12.20
2018-03-14T10:23:57.706Z,12.20
2018-03-14T10:26:25.246Z,12.20
2018-03-14T10:28:52.633Z,12.30
2018-03-14T10:31:20.346Z,12.40
2018-03-14T10:33:47.646Z,12.50
2018-03-14T10:36:15.833Z,12.90
2018-03-14T10:38:43.167Z,12.90
2018-03-14T10:41:12.090Z,13.20
2018-03-14T10:43:40.267Z,13.50
2018-03-14T10:46:07.966Z,13.40
2018-03-14T10:48:35.566Z,13.50
2018-03-14T10:51:02.967Z,13.30
2018-03-14T10:53:30.327Z,13.20
2018-03-14T10:55:57.728Z,13.20
2018-03-14T10:58:25.086Z,13.30
2018-03-14T11:00:56.468Z,13.40
2018-03-14T11:03:40.305Z,13.40
2018-03-14T11:06:07.965Z,13.40
2018-03-14T11:08:36.086Z,13.30
2018-03-14T11:11:03.646Z,13.30
2018-03-14T11:13:32.635Z,13.30
2018-03-14T11:16:00.028Z,13.40
2018-03-14T11:18:27.488Z,13.40
2018-03-14T11:20:54.966Z,13.40
2018-03-14T11:23:22.405Z,13.30
2018-03-14T11:25:49.825Z,13.10
2018-03-14T11:28:17.865Z,13.00
2018-03-14T11:30:45.186Z,13.00
2018-03-14T11:35:44.625Z,12.90
2018-03-14T11:38:12.407Z,12.90
2018-03-14T11:40:40.905Z,13.30
2018-03-14T11:43:08.347Z,13.30
2018-03-14T11:45:36.667Z,13.30
2018-03-14T11:48:04.367Z,13.30
2018-03-14T11:50:31.885Z,13.40
2018-03-14T11:52:59.166Z,13.40
2018-03-14T11:55:26.667Z,13.30
2018-03-14T11:57:54.125Z,13.10
2018-03-14T12:00:23.102Z,13.00
2018-03-14T12:02:51.164Z,12.90
2018-03-14T12:05:18.765Z,13.00
2018-03-14T12:07:46.467Z,13.10
2018-03-14T12:10:14.394Z,13.20
2018-03-14T12:12:42.805Z,13.30
2018-03-14T12:15:10.186Z,13.30
2018-03-14T12:17:37.886Z,13.30
2018-03-14T12:20:06.065Z,13.20
2018-03-14T12:22:33.747Z,13.20
2018-03-14T12:25:01.288Z,13.30
2018-03-14T12:27:28.607Z,13.30
2018-03-14T12:29:57.088Z,13.30
2018-03-14T12:32:24.745Z,13.30
2018-03-14T12:34:52.385Z,13.30
2018-03-14T12:37:21.128Z,13.20
2018-03-14T12:39:48.768Z,13.20
2018-03-14T12:42:16.678Z,13.10
2018-03-14T12:44:44.926Z,13.00
2018-03-14T12:47:13.416Z,13.00
2018-03-14T12:49:41.055Z,13.00
2018-03-14T12:52:08.416Z,12.90
2018-03-14T12:54:36.717Z,12.80
2018-03-14T12:57:04.657Z,12.70
2018-03-14T12:59:33.400Z,12.70
2018-03-14T13:02:00.770Z,12.60
2018-03-14T13:04:28.406Z,12.60
2018-03-14T13:06:55.886Z,12.50
2018-03-14T13:09:23.206Z,12.40
2018-03-14T13:11:50.536Z,12.40
2018-03-14T13:14:18.877Z,12.30
2018-03-14T13:16:46.394Z,12.40
2018-03-14T13:19:14.529Z,12.40
2018-03-14T13:21:41.932Z,12.40
2018-03-14T13:24:09.548Z,12.40
2018-03-14T13:26:36.971Z,12.40
2018-03-14T13:29:04.609Z,12.40
2018-03-14T13:31:32.288Z,12.40
2018-03-14T13:33:59.926Z,12.40
2018-03-14T13:36:28.165Z,12.40
2018-03-14T13:38:55.968Z,12.40
2018-03-14T13:41:23.567Z,12.40
2018-03-14T13:43:51.009Z,12.40
2018-03-14T13:46:18.430Z,12.30
2018-03-14T13:48:45.773Z,12.20
2018-03-14T13:51:14.153Z,12.00
2018-03-14T13:53:41.912Z,12.00
2018-03-14T13:56:18.185Z,12.00
2018-03-14T13:58:47.359Z,11.90
2018-03-14T14:01:15.342Z,11.80
2018-03-14T14:03:44.042Z,11.80
2018-03-14T14:06:12.395Z,11.90
2018-03-14T14:08:39.890Z,11.90
2018-03-14T14:11:07.234Z,11.90
2018-03-14T14:13:34.752Z,12.00
2018-03-14T14:16:02.260Z,12.10
2018-03-14T14:18:29.661Z,12.00
2018-03-14T14:20:57.152Z,11.90
2018-03-14T14:23:24.472Z,11.70
2018-03-14T14:25:52.893Z,11.80
2018-03-14T14:28:20.506Z,11.80
2018-03-14T14:30:47.852Z,11.90
2018-03-14T14:33:15.306Z,11.90
2018-03-14T14:35:42.681Z,12.10
2018-03-14T14:38:10.192Z,12.20
2018-03-14T14:40:38.037Z,12.30
2018-03-14T14:43:05.595Z,12.30
2018-03-14T14:45:33.407Z,12.30
2018-03-14T14:48:00.859Z,12.30
2018-03-14T14:50:29.248Z,12.30
2018-03-14T14:52:56.929Z,12.30
2018-03-14T14:55:24.447Z,12.20
2018-03-14T14:57:51.976Z,12.10
2018-03-14T15:00:22.962Z,12.00
2018-03-14T15:02:50.531Z,11.90
2018-03-14T15:05:18.070Z,11.90
2018-03-14T15:07:45.554Z,11.80
2018-03-14T15:10:14.272Z,11.70
2018-03-14T15:12:42.112Z,11.70
2018-03-14T15:15:09.471Z,11.70
2018-03-14T15:17:36.975Z,11.60
2018-03-14T15:20:04.390Z,11.60
2018-03-14T15:22:31.652Z,11.60
2018-03-14T15:24:59.571Z,11.60
2018-03-14T15:27:27.051Z,11.50
2018-03-14T15:29:54.432Z,11.50
2018-03-14T15:32:21.852Z,11.60
2018-03-14T15:34:49.274Z,11.50
2018-03-14T15:37:16.652Z,11.60
2018-03-14T15:39:44.453Z,11.50
2018-03-14T15:42:12.105Z,11.50
2018-03-14T15:44:40.594Z,11.40
2018-03-14T15:47:08.492Z,11.40
2018-03-14T15:49:36.233Z,11.40
2018-03-14T15:52:04.080Z,11.30
2018-03-14T15:54:31.592Z,11.20
2018-03-14T15:56:58.899Z,11.10
2018-03-14T15:59:26.110Z,11.10
2018-03-14T16:01:53.365Z,11.10
2018-03-14T16:04:20.689Z,11.10
2018-03-14T16:06:47.954Z,11.00
2018-03-14T16:09:15.248Z,11.00
2018-03-14T16:11:42.462Z,11.00
2018-03-14T16:14:10.546Z,10.90
2018-03-14T16:16:38.884Z,10.90
2018-03-14T16:19:06.959Z,10.80
2018-03-14T16:21:34.205Z,10.80
2018-03-14T16:24:01.889Z,10.80
2018-03-14T16:26:29.690Z,10.80
2018-03-14T16:28:57.149Z,10.80
2018-03-14T16:31:24.528Z,10.70
2018-03-14T16:33:52.668Z,10.70
2018-03-14T16:36:20.337Z,10.70
2018-03-14T16:38:47.969Z,10.70
2018-03-14T16:41:15.508Z,10.70
2018-03-14T16:43:42.989Z,10.60
2018-03-14T16:46:10.410Z,10.60
2018-03-14T16:48:37.888Z,10.50
2018-03-14T16:51:05.270Z,10.50
2018-03-14T16:53:32.648Z,10.40
2018-03-14T16:56:00.102Z,10.40
2018-03-14T16:58:27.493Z,10.30
2018-03-14T17:00:55.330Z,10.30
2018-03-14T17:03:22.871Z,10.20
2018-03-14T17:05:50.150Z,10.20
2018-03-14T17:08:17.394Z,10.10
2018-03-14T17:10:44.770Z,10.10
2018-03-14T17:13:13.218Z,10.00
2018-03-14T17:15:41.072Z,10.00
2018-03-14T17:18:08.494Z,10.00
2018-03-14T17:20:35.819Z,10.00
2018-03-14T17:23:03.274Z,10.00
2018-03-14T17:25:30.932Z,9.90
2018-03-14T17:27:58.389Z,10.00
2018-03-14T17:30:25.809Z,9.90
2018-03-14T17:32:53.153Z,9.90
2018-03-14T17:35:20.931Z,9.90
2018-03-14T17:37:48.350Z,9.90
2018-03-14T17:40:16.929Z,9.90
2018-03-14T17:42:44.490Z,9.90
2018-03-14T17:45:11.974Z,9.90
2018-03-14T17:47:39.671Z,9.80
2018-03-14T17:50:07.212Z,9.80
2018-03-14T17:52:34.677Z,9.70
2018-03-14T17:55:02.111Z,9.70
2018-03-14T17:57:29.573Z,9.60
2018-03-14T17:59:57.413Z,9.60
2018-03-14T18:02:24.814Z,9.60
2018-03-14T18:04:52.457Z,9.60
2018-03-14T18:07:19.894Z,9.60
2018-03-14T18:09:47.335Z,9.40
2018-03-14T18:12:14.837Z,9.30
2018-03-14T18:14:42.214Z,9.30
2018-03-14T18:17:09.615Z,9.20
2018-03-14T18:19:37.196Z,9.20
2018-03-14T18:22:04.773Z,9.20
2018-03-14T18:24:32.335Z,9.10
2018-03-14T18:26:59.914Z,9.20
2018-03-14T18:29:28.203Z,9.10
2018-03-14T18:31:57.095Z,9.10
2018-03-14T18:34:24.615Z,9.10
2018-03-14T18:36:52.451Z,9.10
2018-03-14T18:39:20.610Z,9.10
2018-03-14T18:41:48.142Z,9.00
2018-03-14T18:44:16.209Z,9.00
2018-03-14T18:46:43.818Z,9.00
2018-03-14T18:49:11.213Z,9.00
2018-03-14T18:51:39.416Z,8.90
2018-03-14T18:54:07.614Z,8.90
2018-03-14T18:56:36.271Z,8.80
2018-03-14T18:59:03.810Z,8.80
2018-03-14T19:01:32.267Z,8.70
2018-03-14T19:04:00.289Z,8.60
2018-03-14T19:06:27.747Z,8.50
2018-03-14T19:08:55.007Z,8.50
2018-03-14T19:11:22.449Z,8.50
2018-03-14T19:13:50.907Z,8.40
2018-03-14T19:16:18.373Z,8.40
2018-03-14T19:18:46.687Z,8.40
2018-03-14T19:21:14.176Z,8.40
2018-03-14T19:23:42.368Z,8.30
2018-03-14T19:26:10.586Z,8.20
2018-03-14T19:28:38.689Z,8.10
2018-03-14T19:31:07.835Z,8.10
2018-03-14T19:33:36.906Z,8.10
2018-03-14T19:36:05.048Z,8.00
2018-03-14T19:38:32.928Z,8.00
2018-03-14T19:41:00.470Z,7.90
2018-03-14T19:43:28.306Z,7.80
2018-03-14T19:45:56.255Z,7.70
2018-03-14T19:48:24.130Z,7.70
2018-03-14T19:50:51.950Z,7.60
2018-03-14T19:53:19.991Z,7.50
2018-03-14T19:55:47.849Z,7.40
2018-03-14T19:58:15.888Z,7.30
2018-03-14T20:00:43.915Z,7.20
2018-03-14T20:03:11.750Z,7.10
2018-03-14T20:05:39.727Z,7.00
2018-03-14T20:08:07.649Z,7.00
2018-03-14T20:10:35.504Z,6.90
2018-03-14T20:13:03.462Z,6.90
2018-03-14T20:15:34.672Z,6.80
2018-03-14T20:18:02.520Z,6.80
2018-03-14T20:20:31.318Z,6.60
2018-03-14T20:22:59.154Z,6.60
2018-03-14T20:25:26.913Z,6.60
2018-03-14T20:27:54.758Z,6.60
2018-03-14T20:30:22.807Z,6.50
2018-03-14T20:32:50.902Z,6.40
2018-03-14T20:35:18.752Z,6.40
2018-03-14T20:37:46.529Z,6.40
2018-03-14T20:40:14.983Z,6.40
2018-03-14T20:42:42.847Z,6.40
2018-03-14T20:45:10.572Z,6.30
2018-03-14T20:47:38.471Z,6.30
2018-03-14T20:50:06.453Z,6.20
2018-03-14T20:52:34.298Z,6.20
2018-03-14T20:55:02.134Z,6.20
2018-03-14T20:57:29.988Z,6.10
2018-03-14T20:59:58.148Z,6.00
2018-03-14T21:02:26.805Z,6.00
2018-03-14T21:04:54.666Z,6.00
2018-03-14T21:07:22.533Z,5.90
2018-03-14T21:10:01.829Z,5.90
2018-03-14T21:12:31.290Z,5.90
2018-03-14T21:14:59.157Z,5.80
2018-03-14T21:17:27.014Z,5.80
2018-03-14T21:19:55.086Z,5.80
2018-03-14T21:22:23.075Z,5.80
2018-03-14T21:24:50.867Z,5.80
2018-03-14T21:27:19.204Z,5.80
2018-03-14T21:29:47.429Z,5.80
2018-03-14T21:32:15.669Z,5.70
2018-03-14T21:34:43.608Z,5.70
2018-03-14T21:37:28.747Z,5.70
2018-03-14T21:39:56.526Z,5.70
2018-03-14T21:42:24.392Z,5.80
2018-03-14T21:44:52.473Z,5.80
2018-03-14T21:47:20.629Z,5.80
2018-03-14T21:49:48.527Z,5.80
2018-03-14T21:52:16.387Z,5.80
2018-03-14T21:54:44.537Z,5.70
2018-03-14T21:57:19.068Z,5.80
2018-03-14T21:59:47.128Z,5.70
2018-03-14T22:02:15.289Z,5.70
2018-03-14T22:04:43.109Z,5.70
2018-03-14T22:07:11.690Z,5.70
2018-03-14T22:09:39.810Z,5.70
2018-03-14T22:12:08.329Z,5.70
2018-03-14T22:14:36.289Z,5.70
2018-03-14T22:17:04.549Z,5.60
2018-03-14T22:19:32.554Z,5.60
2018-03-14T22:22:00.489Z,5.60
2018-03-14T22:24:29.791Z,5.50
2018-03-14T22:26:57.626Z,5.50
2018-03-14T22:29:25.369Z,5.50
2018-03-14T22:31:53.965Z,5.50
2018-03-14T22:34:22.045Z,5.50
2018-03-14T22:36:49.925Z,5.50
2018-03-14T22:39:18.044Z,5.50
2018-03-14T22:41:46.105Z,5.50
2018-03-14T22:44:14.946Z,5.50
2018-03-14T22:46:43.734Z,5.50
2018-03-14T22:49:11.985Z,5.40
2018-03-14T22:51:39.805Z,5.40
2018-03-14T22:54:07.725Z,5.40
2018-03-14T22:56:35.525Z,5.40
2018-03-14T22:59:04.533Z,5.30
2018-03-14T23:01:33.317Z,5.30
2018-03-14T23:04:01.477Z,5.30
2018-03-14T23:06:30.051Z,5.30
2018-03-14T23:08:58.124Z,5.30
2018-03-14T23:11:26.352Z,5.30
2018-03-14T23:13:54.533Z,5.20
2018-03-14T23:16:22.413Z,5.20
2018-03-14T23:18:50.240Z,5.20
2018-03-14T23:21:19.211Z,5.20
2018-03-14T23:23:47.491Z,5.20
2018-03-14T23:26:16.072Z,5.20
2018-03-14T23:28:44.071Z,5.20
2018-03-14T23:31:14.672Z,5.20
2018-03-14T23:33:42.489Z,5.10
2018-03-14T23:36:10.213Z,5.20
2018-03-14T23:38:38.469Z,5.20
2018-03-14T23:41:06.749Z,5.20
2018-03-14T23:43:35.397Z,5.20
2018-03-14T23:46:03.389Z,5.20
2018-03-14T23:48:31.149Z,5.20
2018-03-14T23:50:58.988Z,5.20
2018-03-14T23:53:26.749Z,5.20
2018-03-14T23:55:54.609Z,5.20
2018-03-14T23:58:22.573Z,5.20
